sensor_id;sensor_type;location;lat;lon;timestamp;temperature;humidity
3628;DHT22;1830;49.000;12.074;2022-08-04T00:02:23;22.90;91.10
3628;DHT22;1830;49.000;12.074;2022-08-04T00:04:54;22.80;91.00
3628;DHT22;1830;49.000;12.074;2022-08-04T00:07:26;22.80;91.20
3628;DHT22;1830;49.000;12.074;2022-08-04T00:09:59;22.80;91.00
3628;DHT22;1830;49.000;12.074;2022-08-04T00:12:28;22.70;91.00
3628;DHT22;1830;49.000;12.074;2022-08-04T00:14:59;22.70;91.20
3628;DHT22;1830;49.000;12.074;2022-08-04T00:17:31;22.60;91.20
3628;DHT22;1830;49.000;12.074;2022-08-04T00:20:00;22.60;91.40
3628;DHT22;1830;49.000;12.074;2022-08-04T00:22:28;22.50;91.40
3628;DHT22;1830;49.000;12.074;2022-08-04T00:24:56;22.50;91.50
3628;DHT22;1830;49.000;12.074;2022-08-04T00:27:23;22.50;91.50
3628;DHT22;1830;49.000;12.074;2022-08-04T00:29:50;22.50;91.60
3628;DHT22;1830;49.000;12.074;2022-08-04T00:32:17;22.40;91.70
3628;DHT22;1830;49.000;12.074;2022-08-04T00:34:45;22.50;91.90
3628;DHT22;1830;49.000;12.074;2022-08-04T00:37:13;22.50;92.00
3628;DHT22;1830;49.000;12.074;2022-08-04T00:39:41;22.50;92.10
3628;DHT22;1830;49.000;12.074;2022-08-04T00:42:38;22.50;92.20
3628;DHT22;1830;49.000;12.074;2022-08-04T00:45:23;22.40;92.20
3628;DHT22;1830;49.000;12.074;2022-08-04T00:48:03;22.40;92.50
3628;DHT22;1830;49.000;12.074;2022-08-04T00:50:43;22.30;92.60
3628;DHT22;1830;49.000;12.074;2022-08-04T00:53:14;22.30;92.90
3628;DHT22;1830;49.000;12.074;2022-08-04T00:56:03;22.20;93.30
3628;DHT22;1830;49.000;12.074;2022-08-04T00:58:42;22.20;93.20
3628;DHT22;1830;49.000;12.074;2022-08-04T01:01:19;22.20;93.30
3628;DHT22;1830;49.000;12.074;2022-08-04T01:04:02;22.20;93.50
3628;DHT22;1830;49.000;12.074;2022-08-04T01:06:36;22.20;93.60
3628;DHT22;1830;49.000;12.074;2022-08-04T01:09:15;22.10;93.70
3628;DHT22;1830;49.000;12.074;2022-08-04T01:14:59;22.10;93.80
3628;DHT22;1830;49.000;12.074;2022-08-04T01:17:40;22.10;94.00
3628;DHT22;1830;49.000;12.074;2022-08-04T01:20:10;22.10;94.10
3628;DHT22;1830;49.000;12.074;2022-08-04T01:22:54;22.10;94.10
3628;DHT22;1830;49.000;12.074;2022-08-04T01:25:51;22.10;94.10
3628;DHT22;1830;49.000;12.074;2022-08-04T01:28:40;22.10;94.20
3628;DHT22;1830;49.000;12.074;2022-08-04T01:31:19;21.90;94.40
3628;DHT22;1830;49.000;12.074;2022-08-04T01:33:48;22.00;94.50
3628;DHT22;1830;49.000;12.074;2022-08-04T01:36:19;22.00;94.50
3628;DHT22;1830;49.000;12.074;2022-08-04T01:38:48;22.00;94.70
3628;DHT22;1830;49.000;12.074;2022-08-04T01:41:18;22.00;94.80
3628;DHT22;1830;49.000;12.074;2022-08-04T01:43:46;21.90;95.00
3628;DHT22;1830;49.000;12.074;2022-08-04T01:46:16;21.80;95.10
3628;DHT22;1830;49.000;12.074;2022-08-04T01:48:45;21.70;95.30
3628;DHT22;1830;49.000;12.074;2022-08-04T01:51:12;21.60;95.50
3628;DHT22;1830;49.000;12.074;2022-08-04T01:53:40;21.50;95.70
3628;DHT22;1830;49.000;12.074;2022-08-04T01:56:10;21.50;95.90
3628;DHT22;1830;49.000;12.074;2022-08-04T01:58:38;21.50;96.30
3628;DHT22;1830;49.000;12.074;2022-08-04T02:01:07;21.40;96.40
3628;DHT22;1830;49.000;12.074;2022-08-04T02:03:37;21.30;96.60
3628;DHT22;1830;49.000;12.074;2022-08-04T02:06:17;21.30;96.80
3628;DHT22;1830;49.000;12.074;2022-08-04T02:09:01;21.20;96.90
3628;DHT22;1830;49.000;12.074;2022-08-04T02:11:29;21.20;97.50
3628;DHT22;1830;49.000;12.074;2022-08-04T02:14:00;21.10;97.80
3628;DHT22;1830;49.000;12.074;2022-08-04T02:16:32;21.10;98.00
3628;DHT22;1830;49.000;12.074;2022-08-04T02:19:14;21.00;98.10
3628;DHT22;1830;49.000;12.074;2022-08-04T02:21:44;21.00;98.50
3628;DHT22;1830;49.000;12.074;2022-08-04T02:24:15;20.90;98.50
3628;DHT22;1830;49.000;12.074;2022-08-04T02:26:48;20.90;98.80
3628;DHT22;1830;49.000;12.074;2022-08-04T02:29:18;20.90;99.40
3628;DHT22;1830;49.000;12.074;2022-08-04T02:31:47;20.90;99.40
3628;DHT22;1830;49.000;12.074;2022-08-04T02:34:25;20.80;99.60
3628;DHT22;1830;49.000;12.074;2022-08-04T02:36:54;20.80;99.80
3628;DHT22;1830;49.000;12.074;2022-08-04T02:39:22;20.80;99.80
3628;DHT22;1830;49.000;12.074;2022-08-04T02:41:49;20.80;99.90
3628;DHT22;1830;49.000;12.074;2022-08-04T02:44:20;20.70;99.90
3628;DHT22;1830;49.000;12.074;2022-08-04T02:46:50;20.70;99.90
3628;DHT22;1830;49.000;12.074;2022-08-04T02:49:20;20.70;99.90
3628;DHT22;1830;49.000;12.074;2022-08-04T02:51:51;20.60;99.90
3628;DHT22;1830;49.000;12.074;2022-08-04T02:54:19;20.60;99.90
3628;DHT22;1830;49.000;12.074;2022-08-04T02:56:50;20.60;99.90
3628;DHT22;1830;49.000;12.074;2022-08-04T02:59:20;20.60;99.90
3628;DHT22;1830;49.000;12.074;2022-08-04T03:01:48;20.50;99.90
3628;DHT22;1830;49.000;12.074;2022-08-04T03:04:26;20.50;99.90
3628;DHT22;1830;49.000;12.074;2022-08-04T03:07:28;20.50;99.90
3628;DHT22;1830;49.000;12.074;2022-08-04T03:10:46;20.50;99.90
3628;DHT22;1830;49.000;12.074;2022-08-04T03:13:53;20.30;99.90
3628;DHT22;1830;49.000;12.074;2022-08-04T03:16:56;20.30;99.90
3628;DHT22;1830;49.000;12.074;2022-08-04T03:25:46;20.10;99.90
3628;DHT22;1830;49.000;12.074;2022-08-04T03:28:44;20.00;99.90
3628;DHT22;1830;49.000;12.074;2022-08-04T03:31:41;20.00;99.90
3628;DHT22;1830;49.000;12.074;2022-08-04T03:34:32;19.90;99.90
3628;DHT22;1830;49.000;12.074;2022-08-04T03:37:28;19.90;99.90
3628;DHT22;1830;49.000;12.074;2022-08-04T03:40:32;19.90;99.90
3628;DHT22;1830;49.000;12.074;2022-08-04T03:43:41;19.90;99.90
3628;DHT22;1830;49.000;12.074;2022-08-04T03:46:40;19.80;99.90
3628;DHT22;1830;49.000;12.074;2022-08-04T03:52:34;19.70;99.90
3628;DHT22;1830;49.000;12.074;2022-08-04T03:58:51;19.60;99.90
3628;DHT22;1830;49.000;12.074;2022-08-04T04:01:36;19.50;99.90
3628;DHT22;1830;49.000;12.074;2022-08-04T04:07:47;19.50;99.90
3628;DHT22;1830;49.000;12.074;2022-08-04T04:10:28;19.50;99.90
3628;DHT22;1830;49.000;12.074;2022-08-04T04:13:13;19.60;99.90
3628;DHT22;1830;49.000;12.074;2022-08-04T04:15:55;19.50;99.90
3628;DHT22;1830;49.000;12.074;2022-08-04T04:21:57;19.40;99.90
3628;DHT22;1830;49.000;12.074;2022-08-04T04:24:44;19.40;99.90
3628;DHT22;1830;49.000;12.074;2022-08-04T04:27:24;19.40;99.90
3628;DHT22;1830;49.000;12.074;2022-08-04T04:30:03;19.50;99.90
3628;DHT22;1830;49.000;12.074;2022-08-04T04:32:46;19.50;99.90
3628;DHT22;1830;49.000;12.074;2022-08-04T04:35:31;19.50;99.90
3628;DHT22;1830;49.000;12.074;2022-08-04T04:38:33;19.50;99.90
3628;DHT22;1830;49.000;12.074;2022-08-04T04:41:16;19.50;99.90
3628;DHT22;1830;49.000;12.074;2022-08-04T04:44:04;19.60;99.90
3628;DHT22;1830;49.000;12.074;2022-08-04T04:46:40;19.80;99.90
3628;DHT22;1830;49.000;12.074;2022-08-04T04:49:19;19.90;99.90
3628;DHT22;1830;49.000;12.074;2022-08-04T04:51:51;19.80;99.90
3628;DHT22;1830;49.000;12.074;2022-08-04T04:54:25;19.80;99.90
3628;DHT22;1830;49.000;12.074;2022-08-04T04:57:02;19.80;99.90
3628;DHT22;1830;49.000;12.074;2022-08-04T04:59:32;19.80;99.90
3628;DHT22;1830;49.000;12.074;2022-08-04T05:02:31;19.80;99.90
3628;DHT22;1830;49.000;12.074;2022-08-04T05:05:29;19.80;99.90
3628;DHT22;1830;49.000;12.074;2022-08-04T05:08:20;19.80;99.90
3628;DHT22;1830;49.000;12.074;2022-08-04T05:11:11;19.90;99.90
3628;DHT22;1830;49.000;12.074;2022-08-04T05:13:43;19.90;99.90
3628;DHT22;1830;49.000;12.074;2022-08-04T05:16:17;20.00;99.90
3628;DHT22;1830;49.000;12.074;2022-08-04T05:18:50;20.10;99.90
3628;DHT22;1830;49.000;12.074;2022-08-04T05:21:41;20.10;99.90
3628;DHT22;1830;49.000;12.074;2022-08-04T05:24:11;20.20;99.90
3628;DHT22;1830;49.000;12.074;2022-08-04T05:26:44;20.30;99.90
3628;DHT22;1830;49.000;12.074;2022-08-04T05:29:17;20.40;99.90
3628;DHT22;1830;49.000;12.074;2022-08-04T05:31:50;20.40;99.90
3628;DHT22;1830;49.000;12.074;2022-08-04T05:34:21;20.50;99.90
3628;DHT22;1830;49.000;12.074;2022-08-04T05:36:54;20.50;99.90
3628;DHT22;1830;49.000;12.074;2022-08-04T05:39:23;20.60;99.90
3628;DHT22;1830;49.000;12.074;2022-08-04T05:41:51;20.70;99.90
3628;DHT22;1830;49.000;12.074;2022-08-04T05:44:19;20.70;99.90
3628;DHT22;1830;49.000;12.074;2022-08-04T05:46:50;20.80;99.90
3628;DHT22;1830;49.000;12.074;2022-08-04T05:49:18;20.80;99.90
3628;DHT22;1830;49.000;12.074;2022-08-04T05:51:48;20.80;99.90
3628;DHT22;1830;49.000;12.074;2022-08-04T05:54:16;20.80;99.90
3628;DHT22;1830;49.000;12.074;2022-08-04T05:56:45;20.90;99.90
3628;DHT22;1830;49.000;12.074;2022-08-04T05:59:13;20.90;99.90
3628;DHT22;1830;49.000;12.074;2022-08-04T06:01:40;21.00;99.90
3628;DHT22;1830;49.000;12.074;2022-08-04T06:04:08;21.10;99.90
3628;DHT22;1830;49.000;12.074;2022-08-04T06:06:36;21.10;99.90
3628;DHT22;1830;49.000;12.074;2022-08-04T06:09:04;21.10;99.90
3628;DHT22;1830;49.000;12.074;2022-08-04T06:11:33;21.30;99.90
3628;DHT22;1830;49.000;12.074;2022-08-04T06:14:03;21.30;99.90
3628;DHT22;1830;49.000;12.074;2022-08-04T06:16:34;21.40;99.90
3628;DHT22;1830;49.000;12.074;2022-08-04T06:19:03;21.40;99.90
3628;DHT22;1830;49.000;12.074;2022-08-04T06:21:32;21.50;99.90
3628;DHT22;1830;49.000;12.074;2022-08-04T06:24:01;21.60;99.90
3628;DHT22;1830;49.000;12.074;2022-08-04T06:26:33;21.60;99.90
3628;DHT22;1830;49.000;12.074;2022-08-04T06:29:01;21.70;99.90
3628;DHT22;1830;49.000;12.074;2022-08-04T06:31:31;21.80;99.90
3628;DHT22;1830;49.000;12.074;2022-08-04T06:34:09;21.80;99.90
3628;DHT22;1830;49.000;12.074;2022-08-04T06:36:37;21.90;99.90
3628;DHT22;1830;49.000;12.074;2022-08-04T06:39:06;22.00;99.90
3628;DHT22;1830;49.000;12.074;2022-08-04T06:41:35;22.00;99.90
3628;DHT22;1830;49.000;12.074;2022-08-04T06:44:08;22.10;99.90
3628;DHT22;1830;49.000;12.074;2022-08-04T06:46:39;22.20;99.90
3628;DHT22;1830;49.000;12.074;2022-08-04T06:49:07;22.30;99.90
3628;DHT22;1830;49.000;12.074;2022-08-04T06:51:35;22.40;99.90
3628;DHT22;1830;49.000;12.074;2022-08-04T06:54:03;22.40;99.90
3628;DHT22;1830;49.000;12.074;2022-08-04T06:56:32;22.50;99.20
3628;DHT22;1830;49.000;12.074;2022-08-04T06:59:02;22.60;98.90
3628;DHT22;1830;49.000;12.074;2022-08-04T07:01:29;22.70;97.90
3628;DHT22;1830;49.000;12.074;2022-08-04T07:03:58;22.80;97.20
3628;DHT22;1830;49.000;12.074;2022-08-04T07:06:25;22.90;96.20
3628;DHT22;1830;49.000;12.074;2022-08-04T07:08:52;23.00;95.50
3628;DHT22;1830;49.000;12.074;2022-08-04T07:11:21;23.00;94.90
3628;DHT22;1830;49.000;12.074;2022-08-04T07:13:49;23.10;95.00
3628;DHT22;1830;49.000;12.074;2022-08-04T07:16:19;23.20;94.30
3628;DHT22;1830;49.000;12.074;2022-08-04T07:18:47;23.20;94.40
3628;DHT22;1830;49.000;12.074;2022-08-04T07:21:20;23.30;94.50
3628;DHT22;1830;49.000;12.074;2022-08-04T07:23:47;23.40;94.60
3628;DHT22;1830;49.000;12.074;2022-08-04T07:26:14;23.50;94.50
3628;DHT22;1830;49.000;12.074;2022-08-04T07:28:43;23.50;94.50
3628;DHT22;1830;49.000;12.074;2022-08-04T07:31:13;23.60;94.30
3628;DHT22;1830;49.000;12.074;2022-08-04T07:33:42;23.70;94.30
3628;DHT22;1830;49.000;12.074;2022-08-04T07:36:09;23.80;94.30
3628;DHT22;1830;49.000;12.074;2022-08-04T07:38:37;23.90;93.80
3628;DHT22;1830;49.000;12.074;2022-08-04T07:41:04;24.10;93.30
3628;DHT22;1830;49.000;12.074;2022-08-04T07:43:31;24.10;93.00
3628;DHT22;1830;49.000;12.074;2022-08-04T07:45:58;24.30;93.10
3628;DHT22;1830;49.000;12.074;2022-08-04T07:48:25;24.30;92.80
3628;DHT22;1830;49.000;12.074;2022-08-04T07:50:54;24.30;93.20
3628;DHT22;1830;49.000;12.074;2022-08-04T07:53:21;24.40;92.50
3628;DHT22;1830;49.000;12.074;2022-08-04T07:55:50;24.50;92.50
3628;DHT22;1830;49.000;12.074;2022-08-04T07:58:17;24.50;92.40
3628;DHT22;1830;49.000;12.074;2022-08-04T08:00:44;24.60;92.60
3628;DHT22;1830;49.000;12.074;2022-08-04T08:03:13;24.70;92.60
3628;DHT22;1830;49.000;12.074;2022-08-04T08:05:40;24.80;92.40
3628;DHT22;1830;49.000;12.074;2022-08-04T08:08:09;24.90;92.30
3628;DHT22;1830;49.000;12.074;2022-08-04T08:10:37;24.90;92.20
3628;DHT22;1830;49.000;12.074;2022-08-04T08:13:04;24.90;92.10
3628;DHT22;1830;49.000;12.074;2022-08-04T08:15:32;25.00;92.40
3628;DHT22;1830;49.000;12.074;2022-08-04T08:17:59;25.10;92.30
3628;DHT22;1830;49.000;12.074;2022-08-04T08:20:28;25.10;92.30
3628;DHT22;1830;49.000;12.074;2022-08-04T08:22:55;25.20;92.00
3628;DHT22;1830;49.000;12.074;2022-08-04T08:25:23;25.20;92.10
3628;DHT22;1830;49.000;12.074;2022-08-04T08:27:50;25.20;92.10
3628;DHT22;1830;49.000;12.074;2022-08-04T08:30:17;25.40;91.90
3628;DHT22;1830;49.000;12.074;2022-08-04T08:32:44;25.60;91.40
3628;DHT22;1830;49.000;12.074;2022-08-04T08:35:11;25.60;91.50
3628;DHT22;1830;49.000;12.074;2022-08-04T08:37:42;25.70;91.30
3628;DHT22;1830;49.000;12.074;2022-08-04T08:40:26;25.70;91.10
3628;DHT22;1830;49.000;12.074;2022-08-04T08:46:35;25.80;91.60
3628;DHT22;1830;49.000;12.074;2022-08-04T08:49:35;25.90;91.20
3628;DHT22;1830;49.000;12.074;2022-08-04T08:52:19;26.00;91.30
3628;DHT22;1830;49.000;12.074;2022-08-04T08:55:06;26.00;91.40
3628;DHT22;1830;49.000;12.074;2022-08-04T08:57:47;26.10;91.00
3628;DHT22;1830;49.000;12.074;2022-08-04T09:00:21;26.10;91.10
3628;DHT22;1830;49.000;12.074;2022-08-04T09:03:16;26.20;91.20
3628;DHT22;1830;49.000;12.074;2022-08-04T09:05:58;26.30;91.30
3628;DHT22;1830;49.000;12.074;2022-08-04T09:09:03;26.40;90.80
3628;DHT22;1830;49.000;12.074;2022-08-04T09:11:38;26.40;90.70
3628;DHT22;1830;49.000;12.074;2022-08-04T09:14:16;26.60;90.70
3628;DHT22;1830;49.000;12.074;2022-08-04T09:16:50;26.70;90.40
3628;DHT22;1830;49.000;12.074;2022-08-04T09:19:22;26.80;90.30
3628;DHT22;1830;49.000;12.074;2022-08-04T09:21:58;26.90;88.30
3628;DHT22;1830;49.000;12.074;2022-08-04T09:24:34;26.90;88.60
3628;DHT22;1830;49.000;12.074;2022-08-04T09:27:09;27.00;88.80
3628;DHT22;1830;49.000;12.074;2022-08-04T09:29:46;27.00;88.50
3628;DHT22;1830;49.000;12.074;2022-08-04T09:32:22;27.20;88.20
3628;DHT22;1830;49.000;12.074;2022-08-04T09:35:00;27.30;87.50
3628;DHT22;1830;49.000;12.074;2022-08-04T09:37:34;27.50;87.10
3628;DHT22;1830;49.000;12.074;2022-08-04T09:40:06;27.60;87.00
3628;DHT22;1830;49.000;12.074;2022-08-04T09:42:43;27.60;86.50
3628;DHT22;1830;49.000;12.074;2022-08-04T09:45:21;27.70;85.70
3628;DHT22;1830;49.000;12.074;2022-08-04T09:47:56;27.90;85.00
3628;DHT22;1830;49.000;12.074;2022-08-04T09:50:33;27.90;84.10
3628;DHT22;1830;49.000;12.074;2022-08-04T09:53:14;27.90;84.00
3628;DHT22;1830;49.000;12.074;2022-08-04T09:55:49;28.00;84.20
3628;DHT22;1830;49.000;12.074;2022-08-04T09:58:26;28.10;83.60
3628;DHT22;1830;49.000;12.074;2022-08-04T10:01:02;28.20;82.80
3628;DHT22;1830;49.000;12.074;2022-08-04T10:03:34;28.30;82.50
3628;DHT22;1830;49.000;12.074;2022-08-04T10:06:09;28.30;80.40
3628;DHT22;1830;49.000;12.074;2022-08-04T10:09:00;28.40;80.10
3628;DHT22;1830;49.000;12.074;2022-08-04T10:11:47;28.50;80.30
3628;DHT22;1830;49.000;12.074;2022-08-04T10:14:34;28.60;78.80
3628;DHT22;1830;49.000;12.074;2022-08-04T10:17:13;28.70;78.60
3628;DHT22;1830;49.000;12.074;2022-08-04T10:19:41;28.70;78.60
3628;DHT22;1830;49.000;12.074;2022-08-04T10:22:12;28.80;79.80
3628;DHT22;1830;49.000;12.074;2022-08-04T10:24:52;28.90;76.80
3628;DHT22;1830;49.000;12.074;2022-08-04T10:27:27;28.90;75.90
3628;DHT22;1830;49.000;12.074;2022-08-04T10:29:57;29.00;76.70
3628;DHT22;1830;49.000;12.074;2022-08-04T10:32:34;29.10;77.20
3628;DHT22;1830;49.000;12.074;2022-08-04T10:35:08;29.20;76.40
3628;DHT22;1830;49.000;12.074;2022-08-04T10:37:41;29.20;76.10
3628;DHT22;1830;49.000;12.074;2022-08-04T10:40:13;29.30;75.00
3628;DHT22;1830;49.000;12.074;2022-08-04T10:43:04;29.40;73.80
3628;DHT22;1830;49.000;12.074;2022-08-04T10:45:35;29.50;73.70
3628;DHT22;1830;49.000;12.074;2022-08-04T10:48:11;29.40;72.30
3628;DHT22;1830;49.000;12.074;2022-08-04T10:50:45;29.50;71.30
3628;DHT22;1830;49.000;12.074;2022-08-04T10:53:19;29.60;71.20
3628;DHT22;1830;49.000;12.074;2022-08-04T10:55:53;29.70;71.50
3628;DHT22;1830;49.000;12.074;2022-08-04T10:58:27;29.80;71.50
3628;DHT22;1830;49.000;12.074;2022-08-04T11:00:58;29.80;70.20
3628;DHT22;1830;49.000;12.074;2022-08-04T11:03:33;29.80;68.90
3628;DHT22;1830;49.000;12.074;2022-08-04T11:06:04;29.80;68.30
3628;DHT22;1830;49.000;12.074;2022-08-04T11:08:34;30.00;70.60
3628;DHT22;1830;49.000;12.074;2022-08-04T11:11:06;30.20;70.20
3628;DHT22;1830;49.000;12.074;2022-08-04T11:13:41;30.30;69.50
3628;DHT22;1830;49.000;12.074;2022-08-04T11:16:15;30.50;69.50
3628;DHT22;1830;49.000;12.074;2022-08-04T11:18:48;30.50;68.30
3628;DHT22;1830;49.000;12.074;2022-08-04T11:21:20;30.50;68.40
3628;DHT22;1830;49.000;12.074;2022-08-04T11:23:55;30.70;68.60
3628;DHT22;1830;49.000;12.074;2022-08-04T11:26:32;30.80;68.90
3628;DHT22;1830;49.000;12.074;2022-08-04T11:29:08;31.00;68.10
3628;DHT22;1830;49.000;12.074;2022-08-04T11:31:40;31.00;67.00
3628;DHT22;1830;49.000;12.074;2022-08-04T11:34:19;31.10;66.70
3628;DHT22;1830;49.000;12.074;2022-08-04T11:36:51;31.40;67.10
3628;DHT22;1830;49.000;12.074;2022-08-04T11:39:24;31.60;66.00
3628;DHT22;1830;49.000;12.074;2022-08-04T11:41:59;31.70;65.30
3628;DHT22;1830;49.000;12.074;2022-08-04T11:44:30;31.70;63.90
3628;DHT22;1830;49.000;12.074;2022-08-04T11:47:02;31.80;63.70
3628;DHT22;1830;49.000;12.074;2022-08-04T11:49:35;31.80;62.30
3628;DHT22;1830;49.000;12.074;2022-08-04T11:52:06;31.80;62.00
3628;DHT22;1830;49.000;12.074;2022-08-04T11:54:35;31.70;62.10
3628;DHT22;1830;49.000;12.074;2022-08-04T11:57:03;31.90;63.80
3628;DHT22;1830;49.000;12.074;2022-08-04T11:59:32;32.00;63.20
3628;DHT22;1830;49.000;12.074;2022-08-04T12:02:18;32.20;63.30
3628;DHT22;1830;49.000;12.074;2022-08-04T12:04:55;32.30;61.90
3628;DHT22;1830;49.000;12.074;2022-08-04T12:07:32;32.50;62.60
3628;DHT22;1830;49.000;12.074;2022-08-04T12:10:14;32.50;60.80
3628;DHT22;1830;49.000;12.074;2022-08-04T12:12:51;32.60;61.60
3628;DHT22;1830;49.000;12.074;2022-08-04T12:15:25;32.60;60.70
3628;DHT22;1830;49.000;12.074;2022-08-04T12:17:56;32.70;61.50
3628;DHT22;1830;49.000;12.074;2022-08-04T12:20:30;32.70;59.70
3628;DHT22;1830;49.000;12.074;2022-08-04T12:23:00;32.90;61.10
3628;DHT22;1830;49.000;12.074;2022-08-04T12:25:32;33.00;59.40
3628;DHT22;1830;49.000;12.074;2022-08-04T12:28:04;33.10;59.20
3628;DHT22;1830;49.000;12.074;2022-08-04T12:30:35;33.30;60.20
3628;DHT22;1830;49.000;12.074;2022-08-04T12:33:05;33.20;58.30
3628;DHT22;1830;49.000;12.074;2022-08-04T12:35:40;33.20;58.20
3628;DHT22;1830;49.000;12.074;2022-08-04T12:38:11;33.30;58.70
3628;DHT22;1830;49.000;12.074;2022-08-04T12:40:46;33.20;58.30
3628;DHT22;1830;49.000;12.074;2022-08-04T12:43:17;33.50;58.50
3628;DHT22;1830;49.000;12.074;2022-08-04T12:45:49;33.50;58.00
3628;DHT22;1830;49.000;12.074;2022-08-04T12:48:17;33.50;57.50
3628;DHT22;1830;49.000;12.074;2022-08-04T12:50:47;33.60;57.20
3628;DHT22;1830;49.000;12.074;2022-08-04T12:53:15;33.70;56.50
3628;DHT22;1830;49.000;12.074;2022-08-04T12:55:46;33.70;57.10
3628;DHT22;1830;49.000;12.074;2022-08-04T12:58:16;33.90;58.00
3628;DHT22;1830;49.000;12.074;2022-08-04T13:00:51;33.80;57.30
3628;DHT22;1830;49.000;12.074;2022-08-04T13:03:20;34.00;57.00
3628;DHT22;1830;49.000;12.074;2022-08-04T13:05:52;33.90;57.10
3628;DHT22;1830;49.000;12.074;2022-08-04T13:08:21;34.10;56.90
3628;DHT22;1830;49.000;12.074;2022-08-04T13:10:51;34.10;56.60
3628;DHT22;1830;49.000;12.074;2022-08-04T13:13:20;34.10;55.80
3628;DHT22;1830;49.000;12.074;2022-08-04T13:15:57;34.20;56.30
3628;DHT22;1830;49.000;12.074;2022-08-04T13:18:25;34.30;56.20
3628;DHT22;1830;49.000;12.074;2022-08-04T13:20:54;34.30;56.20
3628;DHT22;1830;49.000;12.074;2022-08-04T13:23:25;34.40;56.20
3628;DHT22;1830;49.000;12.074;2022-08-04T13:25:55;34.30;56.10
3628;DHT22;1830;49.000;12.074;2022-08-04T13:28:24;34.40;55.80
3628;DHT22;1830;49.000;12.074;2022-08-04T13:30:54;34.40;55.50
3628;DHT22;1830;49.000;12.074;2022-08-04T13:33:22;34.50;55.70
3628;DHT22;1830;49.000;12.074;2022-08-04T13:35:56;34.50;56.10
3628;DHT22;1830;49.000;12.074;2022-08-04T13:38:24;34.60;55.60
3628;DHT22;1830;49.000;12.074;2022-08-04T13:40:51;34.70;55.70
3628;DHT22;1830;49.000;12.074;2022-08-04T13:43:24;34.60;55.00
3628;DHT22;1830;49.000;12.074;2022-08-04T13:45:58;34.70;55.10
3628;DHT22;1830;49.000;12.074;2022-08-04T13:48:30;34.70;54.50
3628;DHT22;1830;49.000;12.074;2022-08-04T13:51:01;34.70;54.90
3628;DHT22;1830;49.000;12.074;2022-08-04T13:53:30;34.70;54.40
3628;DHT22;1830;49.000;12.074;2022-08-04T13:55:59;34.70;54.60
3628;DHT22;1830;49.000;12.074;2022-08-04T13:58:29;34.80;55.00
3628;DHT22;1830;49.000;12.074;2022-08-04T14:00:59;34.90;54.70
3628;DHT22;1830;49.000;12.074;2022-08-04T14:03:30;35.00;54.40
3628;DHT22;1830;49.000;12.074;2022-08-04T14:06:19;35.10;54.40
3628;DHT22;1830;49.000;12.074;2022-08-04T14:08:49;35.10;54.20
3628;DHT22;1830;49.000;12.074;2022-08-04T14:11:17;35.00;53.90
3628;DHT22;1830;49.000;12.074;2022-08-04T14:13:45;35.10;54.00
3628;DHT22;1830;49.000;12.074;2022-08-04T14:16:16;35.10;53.70
3628;DHT22;1830;49.000;12.074;2022-08-04T14:18:44;35.10;53.90
3628;DHT22;1830;49.000;12.074;2022-08-04T14:21:13;35.00;53.70
3628;DHT22;1830;49.000;12.074;2022-08-04T14:23:44;35.10;53.80
3628;DHT22;1830;49.000;12.074;2022-08-04T14:26:30;35.00;53.30
3628;DHT22;1830;49.000;12.074;2022-08-04T14:29:08;35.00;53.80
3628;DHT22;1830;49.000;12.074;2022-08-04T14:31:34;35.00;54.00
3628;DHT22;1830;49.000;12.074;2022-08-04T14:34:01;34.90;53.50
3628;DHT22;1830;49.000;12.074;2022-08-04T14:36:37;34.90;54.10
3628;DHT22;1830;49.000;12.074;2022-08-04T14:39:06;34.80;53.20
3628;DHT22;1830;49.000;12.074;2022-08-04T14:41:45;34.70;53.30
3628;DHT22;1830;49.000;12.074;2022-08-04T14:44:12;34.70;53.50
3628;DHT22;1830;49.000;12.074;2022-08-04T14:46:48;34.70;54.40
3628;DHT22;1830;49.000;12.074;2022-08-04T14:49:15;34.70;53.80
3628;DHT22;1830;49.000;12.074;2022-08-04T14:51:44;34.60;53.70
3628;DHT22;1830;49.000;12.074;2022-08-04T14:54:13;34.40;53.50
3628;DHT22;1830;49.000;12.074;2022-08-04T14:56:41;34.30;54.30
3628;DHT22;1830;49.000;12.074;2022-08-04T14:59:16;34.50;54.70
3628;DHT22;1830;49.000;12.074;2022-08-04T15:01:44;34.40;54.10
3628;DHT22;1830;49.000;12.074;2022-08-04T15:04:12;34.40;54.50
3628;DHT22;1830;49.000;12.074;2022-08-04T15:06:40;34.30;54.20
3628;DHT22;1830;49.000;12.074;2022-08-04T15:09:09;34.30;54.40
3628;DHT22;1830;49.000;12.074;2022-08-04T15:11:38;34.20;54.00
3628;DHT22;1830;49.000;12.074;2022-08-04T15:14:04;34.10;54.00
3628;DHT22;1830;49.000;12.074;2022-08-04T15:16:33;34.00;54.40
3628;DHT22;1830;49.000;12.074;2022-08-04T15:19:00;34.00;54.70
3628;DHT22;1830;49.000;12.074;2022-08-04T15:21:29;34.10;55.20
3628;DHT22;1830;49.000;12.074;2022-08-04T15:23:57;34.20;55.80
3628;DHT22;1830;49.000;12.074;2022-08-04T15:26:27;34.10;54.80
3628;DHT22;1830;49.000;12.074;2022-08-04T15:29:01;34.00;54.70
3628;DHT22;1830;49.000;12.074;2022-08-04T15:31:34;33.90;55.20
3628;DHT22;1830;49.000;12.074;2022-08-04T15:34:03;33.80;54.80
3628;DHT22;1830;49.000;12.074;2022-08-04T15:36:35;33.70;54.80
3628;DHT22;1830;49.000;12.074;2022-08-04T15:39:13;33.70;55.30
3628;DHT22;1830;49.000;12.074;2022-08-04T15:41:49;33.60;55.60
3628;DHT22;1830;49.000;12.074;2022-08-04T15:44:47;33.60;56.10
3628;DHT22;1830;49.000;12.074;2022-08-04T15:47:19;33.50;55.80
3628;DHT22;1830;49.000;12.074;2022-08-04T15:50:01;33.50;55.40
3628;DHT22;1830;49.000;12.074;2022-08-04T15:52:29;33.50;56.00
3628;DHT22;1830;49.000;12.074;2022-08-04T15:55:32;33.50;56.10
3628;DHT22;1830;49.000;12.074;2022-08-04T15:58:01;33.40;55.60
3628;DHT22;1830;49.000;12.074;2022-08-04T16:03:42;33.40;56.30
3628;DHT22;1830;49.000;12.074;2022-08-04T16:06:42;33.40;56.10
3628;DHT22;1830;49.000;12.074;2022-08-04T16:09:23;33.40;56.00
3628;DHT22;1830;49.000;12.074;2022-08-04T16:11:50;33.40;55.90
3628;DHT22;1830;49.000;12.074;2022-08-04T16:14:32;33.40;56.10
3628;DHT22;1830;49.000;12.074;2022-08-04T16:17:16;33.40;56.40
3628;DHT22;1830;49.000;12.074;2022-08-04T16:20:02;33.30;56.90
3628;DHT22;1830;49.000;12.074;2022-08-04T16:22:35;33.30;56.60
3628;DHT22;1830;49.000;12.074;2022-08-04T16:25:03;33.30;56.50
3628;DHT22;1830;49.000;12.074;2022-08-04T16:27:38;33.30;56.60
3628;DHT22;1830;49.000;12.074;2022-08-04T16:30:07;33.30;56.20
3628;DHT22;1830;49.000;12.074;2022-08-04T16:32:43;33.40;56.20
3628;DHT22;1830;49.000;12.074;2022-08-04T16:35:26;33.40;56.10
3628;DHT22;1830;49.000;12.074;2022-08-04T16:38:10;33.40;56.70
3628;DHT22;1830;49.000;12.074;2022-08-04T16:40:40;33.40;56.80
3628;DHT22;1830;49.000;12.074;2022-08-04T16:43:11;33.30;56.60
3628;DHT22;1830;49.000;12.074;2022-08-04T16:45:49;33.40;57.40
3628;DHT22;1830;49.000;12.074;2022-08-04T16:48:19;33.40;57.30
3628;DHT22;1830;49.000;12.074;2022-08-04T16:51:00;33.40;56.90
3628;DHT22;1830;49.000;12.074;2022-08-04T16:53:32;33.40;56.50
3628;DHT22;1830;49.000;12.074;2022-08-04T16:55:59;33.50;56.90
3628;DHT22;1830;49.000;12.074;2022-08-04T16:58:29;33.50;56.60
3628;DHT22;1830;49.000;12.074;2022-08-04T17:00:57;33.60;56.30